createdAt,value
2023-05-22T00:00:12.569Z,94.56
2023-05-22T00:01:12.561Z,93.95
2023-05-22T00:02:12.586Z,94.46
2023-05-22T00:03:12.545Z,94.15
2023-05-22T00:04:12.621Z,94.76
2023-05-22T00:05:12.797Z,94.26
2023-05-22T00:06:12.530Z,94.15
2023-05-22T00:07:12.499Z,93.55
2023-05-22T00:08:12.503Z,93.75
2023-05-22T00:09:12.466Z,94.56
2023-05-22T00:10:12.548Z,93.55
2023-05-22T00:11:12.451Z,94.40
2023-05-22T00:12:12.524Z,94.96
2023-05-22T00:13:12.431Z,94.91
2023-05-22T00:14:12.464Z,94.20
2023-05-22T00:15:12.449Z,95.31
2023-05-22T00:16:12.445Z,94.20
2023-05-22T00:17:12.465Z,95.31
2023-05-22T00:18:12.500Z,95.31
2023-05-22T00:19:12.440Z,94.71
2023-05-22T00:20:12.413Z,94.91
2023-05-22T00:21:12.391Z,95.11
2023-05-22T00:22:12.372Z,95.11
2023-05-22T00:23:14.626Z,95.01
2023-05-22T00:24:12.381Z,95.01
2023-05-22T00:25:12.350Z,95.26
2023-05-22T00:26:12.368Z,95.01
2023-05-22T00:27:13.293Z,94.75
2023-05-22T00:28:12.359Z,95.01
2023-05-22T00:29:12.316Z,95.51
2023-05-22T00:30:12.376Z,95.97
2023-05-22T00:31:12.324Z,95.26
2023-05-22T00:32:12.300Z,94.91
2023-05-22T00:33:12.290Z,95.31
2023-05-22T00:34:12.377Z,95.72
2023-05-22T00:35:12.261Z,96.42
2023-05-22T00:36:12.261Z,96.02
2023-05-22T00:37:12.232Z,96.53
2023-05-22T00:38:12.245Z,96.57
2023-05-22T00:39:12.256Z,96.88
2023-05-22T00:40:12.240Z,96.47
2023-05-22T00:41:12.190Z,96.27
2023-05-22T00:42:12.202Z,96.47
2023-05-22T00:43:12.198Z,96.47
2023-05-22T00:44:12.203Z,96.17
2023-05-22T00:45:12.185Z,96.47
2023-05-22T00:46:12.257Z,96.67
2023-05-22T00:47:12.145Z,96.57
2023-05-22T00:48:12.160Z,96.83
2023-05-22T00:49:12.158Z,97.28
2023-05-22T00:50:12.132Z,97.49
2023-05-22T00:51:12.112Z,97.18
2023-05-22T00:52:12.136Z,97.49
2023-05-22T00:53:12.098Z,97.08
2023-05-22T00:54:12.124Z,97.18
2023-05-22T00:55:12.108Z,96.67
2023-05-22T00:56:12.082Z,96.88
2023-05-22T00:57:12.094Z,97.08
2023-05-22T00:58:12.091Z,96.98
2023-05-22T00:59:12.070Z,96.98
2023-05-22T01:00:12.068Z,96.78
2023-05-22T01:01:12.081Z,97.18
2023-05-22T01:02:12.098Z,96.67
2023-05-22T01:03:12.143Z,96.57
2023-05-22T01:04:12.104Z,96.88
2023-05-22T01:05:12.014Z,96.88
2023-05-22T01:06:12.005Z,96.67
2023-05-22T01:07:12.006Z,96.78
2023-05-22T01:08:12.078Z,96.78
2023-05-22T01:09:11.968Z,96.37
2023-05-22T01:10:11.976Z,96.27
2023-05-22T01:11:12.006Z,96.17
2023-05-22T01:12:11.986Z,95.61
2023-05-22T01:13:12.087Z,96.17
2023-05-22T01:14:11.977Z,96.17
2023-05-22T01:15:11.932Z,96.17
2023-05-22T01:16:11.962Z,96.17
2023-05-22T01:17:11.913Z,96.72
2023-05-22T01:18:11.948Z,96.62
2023-05-22T01:19:11.947Z,96.27
2023-05-22T01:20:11.897Z,96.42
2023-05-22T01:21:11.890Z,96.31
2023-05-22T01:22:11.869Z,95.56
2023-05-22T01:23:11.837Z,95.71
2023-05-22T01:24:11.882Z,95.15
2023-05-22T01:25:11.825Z,95.15
2023-05-22T01:26:11.848Z,95.20
2023-05-22T01:27:11.809Z,95.46
2023-05-22T01:28:11.844Z,94.14
2023-05-22T01:29:11.834Z,93.54
2023-05-22T01:30:11.839Z,93.84
2023-05-22T01:31:11.782Z,94.45
2023-05-22T01:32:11.778Z,94.55
2023-05-22T01:33:11.819Z,94.65
2023-05-22T01:34:11.817Z,94.85
2023-05-22T01:35:11.767Z,95.06
2023-05-22T01:36:11.752Z,94.85
2023-05-22T01:37:11.750Z,94.95
2023-05-22T01:38:11.739Z,95.50
2023-05-22T01:39:11.757Z,94.90
2023-05-22T01:40:11.742Z,95.00
2023-05-22T01:41:11.703Z,95.00
2023-05-22T01:42:11.810Z,94.70
2023-05-22T01:43:11.689Z,94.70
2023-05-22T01:44:11.715Z,94.79
2023-05-22T01:45:11.706Z,94.90
2023-05-22T01:46:11.683Z,94.90
2023-05-22T01:47:11.690Z,93.94
2023-05-22T01:48:11.682Z,93.94
2023-05-22T01:49:11.635Z,94.04
2023-05-22T01:50:11.681Z,94.24
2023-05-22T01:51:11.649Z,94.70
2023-05-22T01:52:11.631Z,93.88
2023-05-22T01:53:11.621Z,95.00
2023-05-22T01:54:11.621Z,94.39
2023-05-22T01:55:11.598Z,94.14
2023-05-22T01:56:11.624Z,94.45
2023-05-22T01:57:11.611Z,94.24
2023-05-22T01:58:11.586Z,93.58
2023-05-22T01:59:11.555Z,93.13
2023-05-22T02:00:11.586Z,94.45
2023-05-22T02:01:11.543Z,94.39
2023-05-22T02:02:11.614Z,94.59
2023-05-22T02:03:11.768Z,93.78
2023-05-22T02:04:11.538Z,93.43
2023-05-22T02:05:11.500Z,94.45
2023-05-22T02:06:11.512Z,93.88
2023-05-22T02:07:12.334Z,93.99
2023-05-22T02:08:11.543Z,93.58
2023-05-22T02:09:11.478Z,93.68
2023-05-22T02:10:11.543Z,93.78
2023-05-22T02:11:11.443Z,93.48
2023-05-22T02:12:11.470Z,93.58
2023-05-22T02:13:11.445Z,94.29
2023-05-22T02:14:11.474Z,93.78
2023-05-22T02:15:11.426Z,93.68
2023-05-22T02:16:11.553Z,93.78
2023-05-22T02:17:11.425Z,94.49
2023-05-22T02:18:11.542Z,93.88
2023-05-22T02:19:11.434Z,93.78
2023-05-22T02:20:11.417Z,94.29
2023-05-22T02:21:11.393Z,93.48
2023-05-22T02:22:11.387Z,93.48
2023-05-22T02:23:11.403Z,93.88
2023-05-22T02:24:11.373Z,94.09
2023-05-22T02:25:11.338Z,94.84
2023-05-22T02:26:11.355Z,94.29
2023-05-22T02:27:11.309Z,94.74
2023-05-22T02:28:11.322Z,94.94
2023-05-22T02:29:11.295Z,94.64
2023-05-22T02:30:11.326Z,95.14
2023-05-22T02:31:11.327Z,95.35
2023-05-22T02:32:11.276Z,95.45
2023-05-22T02:33:11.382Z,94.84
2023-05-22T02:34:11.263Z,95.65
2023-05-22T02:35:11.277Z,95.14
2023-05-22T02:36:11.278Z,95.55
2023-05-22T02:37:11.233Z,94.64
2023-05-22T02:38:11.274Z,94.84
2023-05-22T02:39:11.216Z,95.55
2023-05-22T02:40:11.222Z,95.65
2023-05-22T02:41:11.189Z,94.84
2023-05-22T02:42:11.211Z,94.84
2023-05-22T02:43:11.218Z,94.23
2023-05-22T02:44:11.194Z,94.29
2023-05-22T02:45:11.171Z,94.23
2023-05-22T02:46:11.193Z,93.73
2023-05-22T02:47:11.146Z,93.93
2023-05-22T02:48:11.286Z,93.73
2023-05-22T02:49:11.130Z,93.48
2023-05-22T02:50:11.143Z,93.48
2023-05-22T02:51:11.149Z,93.88
2023-05-22T02:52:11.137Z,94.43
2023-05-22T02:53:11.122Z,93.62
2023-05-22T02:54:11.116Z,94.23
2023-05-22T02:55:11.082Z,94.54
2023-05-22T02:56:11.096Z,94.34
2023-05-22T02:57:11.071Z,94.23
2023-05-22T02:58:11.069Z,94.84
2023-05-22T02:59:11.063Z,95.09
2023-05-22T03:00:11.076Z,94.84
2023-05-22T03:01:11.100Z,94.94
2023-05-22T03:02:11.174Z,94.74
2023-05-22T03:03:11.192Z,94.74
2023-05-22T03:04:11.113Z,94.13
2023-05-22T03:05:11.005Z,94.74
2023-05-22T03:06:11.010Z,94.64
2023-05-22T03:07:10.996Z,93.83
2023-05-22T03:08:11.000Z,94.34
2023-05-22T03:09:10.986Z,94.13
2023-05-22T03:10:11.004Z,94.34
2023-05-22T03:11:10.972Z,94.34
2023-05-22T03:12:10.969Z,94.23
2023-05-22T03:13:10.926Z,94.13
2023-05-22T03:14:10.936Z,93.87
2023-05-22T03:15:10.899Z,93.73
2023-05-22T03:16:10.969Z,94.54
2023-05-22T03:17:10.889Z,94.27
2023-05-22T03:18:10.925Z,94.94
2023-05-22T03:19:10.915Z,94.48
2023-05-22T03:20:10.903Z,94.03
2023-05-22T03:21:10.853Z,93.48
2023-05-22T03:22:10.866Z,93.83
2023-05-22T03:23:10.839Z,93.52
2023-05-22T03:24:10.857Z,94.13
2023-05-22T03:25:10.877Z,93.73
2023-05-22T03:26:10.825Z,94.13
2023-05-22T03:27:10.798Z,93.97
2023-05-22T03:28:10.838Z,94.27
2023-05-22T03:29:10.878Z,94.03
2023-05-22T03:30:10.804Z,94.27
2023-05-22T03:31:10.784Z,94.58
2023-05-22T03:32:10.789Z,94.64
2023-05-22T03:33:10.933Z,94.48
2023-05-22T03:34:10.851Z,94.18
2023-05-22T03:35:10.747Z,94.48
2023-05-22T03:36:10.744Z,94.58
2023-05-22T03:37:10.747Z,93.97
2023-05-22T03:38:10.747Z,94.27
2023-05-22T03:39:10.732Z,94.48
2023-05-22T03:40:10.734Z,94.27
2023-05-22T03:41:10.684Z,94.58
2023-05-22T03:42:10.707Z,93.77
2023-05-22T03:43:10.690Z,93.83
2023-05-22T03:44:10.693Z,93.73
2023-05-22T03:45:10.655Z,93.46
2023-05-22T03:46:10.681Z,93.52
2023-05-22T03:47:10.666Z,93.93
2023-05-22T03:48:10.814Z,93.52
2023-05-22T03:49:10.634Z,93.42
2023-05-22T03:50:10.628Z,93.32
2023-05-22T03:51:10.598Z,93.62
2023-05-22T03:52:10.631Z,93.52
2023-05-22T03:53:10.597Z,93.42
2023-05-22T03:54:10.622Z,93.52
2023-05-22T03:55:10.573Z,93.42
2023-05-22T03:56:10.583Z,93.73
2023-05-22T03:57:10.543Z,93.62
2023-05-22T03:58:10.564Z,93.12
2023-05-22T03:59:10.557Z,92.82
2023-05-22T04:00:10.551Z,92.71
2023-05-22T04:01:10.533Z,92.82
2023-05-22T04:02:10.562Z,92.36
2023-05-22T04:03:10.566Z,91.66
2023-05-22T04:04:10.511Z,92.06
2023-05-22T04:05:10.609Z,91.41
2023-05-22T04:06:10.535Z,91.20
2023-05-22T04:07:10.491Z,91.11
2023-05-22T04:08:10.491Z,90.36
2023-05-22T04:09:10.447Z,90.05
2023-05-22T04:10:10.469Z,90.45
2023-05-22T04:11:10.447Z,90.40
2023-05-22T04:12:10.443Z,91.31
2023-05-22T04:13:10.443Z,91.41
2023-05-22T04:14:10.455Z,91.20
2023-05-22T04:15:10.403Z,91.51
2023-05-22T04:16:10.437Z,91.31
2023-05-22T04:17:10.379Z,91.31
2023-05-22T04:18:10.457Z,90.91
2023-05-22T04:19:10.435Z,91.41
2023-05-22T04:20:10.405Z,91.16
2023-05-22T04:21:10.386Z,91.92
2023-05-22T04:22:10.364Z,91.61
2023-05-22T04:23:10.342Z,91.82
2023-05-22T04:24:10.364Z,91.51
2023-05-22T04:25:10.318Z,91.92
2023-05-22T04:26:10.318Z,90.70
2023-05-22T04:27:10.305Z,91.16
2023-05-22T04:28:10.350Z,90.25
2023-05-22T04:29:10.282Z,91.12
2023-05-22T04:30:10.300Z,90.76
2023-05-22T04:31:10.317Z,89.91
2023-05-22T04:32:10.329Z,90.76
2023-05-22T04:33:10.328Z,91.16
2023-05-22T04:34:10.266Z,91.37
2023-05-22T04:35:10.263Z,91.77
2023-05-22T04:36:12.395Z,91.87
2023-05-22T04:37:10.240Z,91.67
2023-05-22T04:38:10.246Z,91.87
2023-05-22T04:39:10.876Z,92.08
2023-05-22T04:40:10.263Z,91.27
2023-05-22T04:41:10.190Z,91.06
2023-05-22T04:42:10.192Z,91.27
2023-05-22T04:43:10.194Z,91.27
2023-05-22T04:44:10.180Z,91.77
2023-05-22T04:45:10.163Z,91.32
2023-05-22T04:46:10.229Z,90.98
2023-05-22T04:47:10.197Z,90.37
2023-05-22T04:48:10.140Z,90.78
2023-05-22T04:49:10.141Z,90.17
2023-05-22T04:50:10.146Z,90.27
2023-05-22T04:51:10.118Z,89.46
2023-05-22T04:52:10.117Z,89.26
2023-05-22T04:53:10.081Z,89.16
2023-05-22T04:54:10.090Z,89.76
2023-05-22T04:55:10.060Z,89.01
2023-05-22T04:56:10.101Z,87.81
2023-05-22T04:57:10.084Z,87.96
2023-05-22T04:58:10.047Z,87.72
2023-05-22T04:59:10.039Z,86.81
2023-05-22T05:00:10.068Z,86.91
2023-05-22T05:01:10.073Z,85.46
2023-05-22T05:02:10.034Z,85.76
2023-05-22T05:03:10.134Z,83.60
2023-05-22T05:04:10.114Z,82.96
2023-05-22T05:05:10.020Z,83.59
2023-05-22T05:06:09.990Z,81.93
2023-05-22T05:07:09.986Z,80.43
2023-05-22T05:08:09.999Z,79.58
2023-05-22T05:09:09.938Z,80.49
2023-05-22T05:10:09.989Z,80.39
2023-05-22T05:11:09.920Z,80.25
2023-05-22T05:12:09.950Z,79.85
2023-05-22T05:13:09.915Z,79.00
2023-05-22T05:14:09.920Z,79.30
2023-05-22T05:15:09.895Z,79.27
2023-05-22T05:16:09.963Z,80.71
2023-05-22T05:17:09.869Z,80.95
2023-05-22T05:18:10.029Z,79.38
2023-05-22T05:19:09.935Z,82.14
2023-05-22T05:20:09.883Z,80.19
2023-05-22T05:21:09.850Z,80.22
2023-05-22T05:22:09.873Z,81.90
2023-05-22T05:23:09.820Z,80.39
2023-05-22T05:24:09.857Z,81.05
2023-05-22T05:25:11.645Z,80.55
2023-05-22T05:26:09.947Z,80.21
2023-05-22T05:27:09.838Z,77.50
2023-05-22T05:28:09.811Z,77.73
2023-05-22T05:29:09.789Z,79.41
2023-05-22T05:30:09.820Z,79.71
2023-05-22T05:31:09.767Z,79.61
2023-05-22T05:32:09.820Z,80.45
2023-05-22T05:33:09.877Z,80.31
2023-05-22T05:34:09.759Z,79.91
2023-05-22T05:35:09.767Z,79.10
2023-05-22T05:36:09.789Z,79.91
2023-05-22T05:37:09.714Z,80.51
2023-05-22T05:38:09.758Z,80.27
2023-05-22T05:39:09.711Z,79.77
2023-05-22T05:40:09.764Z,79.63
2023-05-22T05:41:09.688Z,78.85
2023-05-22T05:42:09.782Z,77.45
2023-05-22T05:43:09.698Z,77.11
2023-05-22T05:44:09.707Z,76.81
2023-05-22T05:45:09.662Z,77.37
2023-05-22T05:46:09.760Z,76.28
2023-05-22T05:47:09.666Z,76.74
2023-05-22T05:48:09.682Z,76.07
2023-05-22T05:49:09.663Z,77.58
2023-05-22T05:50:09.685Z,74.07
2023-05-22T05:51:09.616Z,74.97
2023-05-22T05:52:09.625Z,74.13
2023-05-22T05:53:09.636Z,72.90
2023-05-22T05:54:09.628Z,74.17
2023-05-22T05:55:09.581Z,74.54
2023-05-22T05:56:09.620Z,72.19
2023-05-22T05:57:09.562Z,71.93
2023-05-22T05:58:09.599Z,75.60
2023-05-22T05:59:09.553Z,75.37
2023-05-22T06:00:09.551Z,73.97
2023-05-22T06:01:09.581Z,75.04
2023-05-22T06:02:09.591Z,73.19
2023-05-22T06:03:09.611Z,72.13
2023-05-22T06:04:09.538Z,74.10
2023-05-22T06:05:09.551Z,72.60
2023-05-22T06:06:09.527Z,75.00
2023-05-22T06:07:09.487Z,70.73
2023-05-22T06:08:09.533Z,75.37
2023-05-22T06:09:09.475Z,74.43
2023-05-22T06:10:09.505Z,73.20
2023-05-22T06:11:09.466Z,75.81
2023-05-22T06:12:09.472Z,74.71
2023-05-22T06:13:09.448Z,75.57
2023-05-22T06:14:09.497Z,74.17
2023-05-22T06:15:09.447Z,74.10
2023-05-22T06:16:09.471Z,74.47
2023-05-22T06:17:09.450Z,72.43
2023-05-22T06:18:09.487Z,73.60
2023-05-22T06:19:09.488Z,72.09
2023-05-22T06:20:09.467Z,72.30
2023-05-22T06:21:09.387Z,70.50
2023-05-22T06:22:09.398Z,72.73
2023-05-22T06:23:09.390Z,73.67
2023-05-22T06:24:09.372Z,73.93
2023-05-22T06:25:09.353Z,73.03
2023-05-22T06:26:09.399Z,71.23
2023-05-22T06:27:09.364Z,73.19
2023-05-22T06:28:09.365Z,72.13
2023-05-22T06:29:09.326Z,74.13
2023-05-22T06:30:09.855Z,70.79
2023-05-22T06:31:09.319Z,70.83
2023-05-22T06:32:09.423Z,71.09
2023-05-22T06:33:09.403Z,69.62
2023-05-22T06:34:09.445Z,70.39
2023-05-22T06:35:09.284Z,68.39
2023-05-22T06:36:09.327Z,67.93
2023-05-22T06:37:09.267Z,68.66
2023-05-22T06:38:09.264Z,65.73
2023-05-22T06:39:09.268Z,65.07
2023-05-22T06:40:09.263Z,68.26
2023-05-22T06:41:09.237Z,64.71
2023-05-22T06:42:09.262Z,65.08
2023-05-22T06:43:09.249Z,64.61
2023-05-22T06:44:09.252Z,63.26
2023-05-22T06:45:09.231Z,61.44
2023-05-22T06:46:09.392Z,61.48
2023-05-22T06:47:09.206Z,59.65
2023-05-22T06:48:09.210Z,61.27
2023-05-22T06:49:09.203Z,61.27
2023-05-22T06:50:16.191Z,62.42
2023-05-22T06:51:09.193Z,62.78
2023-05-22T06:52:09.180Z,63.65
2023-05-22T06:53:09.155Z,62.82
2023-05-22T06:54:09.162Z,63.35
2023-05-22T06:55:09.127Z,63.05
2023-05-22T06:56:09.143Z,62.71
2023-05-22T06:57:09.135Z,64.84
2023-05-22T06:58:09.127Z,65.30
2023-05-22T06:59:09.123Z,67.07
2023-05-22T07:00:09.138Z,64.74
2023-05-22T07:01:09.133Z,65.34
2023-05-22T07:02:09.167Z,66.27
2023-05-22T07:03:09.173Z,63.95
2023-05-22T07:04:09.140Z,64.48
2023-05-22T07:05:09.057Z,62.15
2023-05-22T07:06:09.126Z,62.65
2023-05-22T07:07:09.051Z,63.39
2023-05-22T07:08:09.052Z,62.15
2023-05-22T07:09:09.045Z,63.48
2023-05-22T07:10:09.038Z,63.71
2023-05-22T07:11:09.044Z,63.88
2023-05-22T07:12:09.048Z,63.48
2023-05-22T07:13:09.015Z,62.75
2023-05-22T07:14:09.049Z,64.84
2023-05-22T07:15:08.996Z,68.13
2023-05-22T07:16:09.060Z,64.31
2023-05-22T07:17:09.017Z,64.51
2023-05-22T07:18:09.030Z,63.04
2023-05-22T07:19:09.063Z,66.03
2023-05-22T07:20:09.025Z,64.97
2023-05-22T07:21:08.974Z,62.75
2023-05-22T07:22:08.950Z,62.68
2023-05-22T07:23:08.941Z,65.11
2023-05-22T07:24:08.949Z,62.85
2023-05-22T07:25:08.910Z,62.98
2023-05-22T07:26:08.936Z,63.21
2023-05-22T07:27:08.913Z,64.41
2023-05-22T07:28:09.030Z,64.74
2023-05-22T07:29:08.909Z,64.50
2023-05-22T07:30:08.896Z,64.37
2023-05-22T07:31:08.935Z,64.27
2023-05-22T07:32:08.874Z,64.93
2023-05-22T07:33:08.979Z,67.16
2023-05-22T07:34:09.031Z,64.64
2023-05-22T07:35:08.873Z,65.01
2023-05-22T07:36:08.860Z,64.71
2023-05-22T07:37:08.867Z,64.77
2023-05-22T07:38:08.944Z,66.30
2023-05-22T07:39:08.811Z,65.97
2023-05-22T07:40:08.829Z,63.42
2023-05-22T07:41:08.801Z,61.72
2023-05-22T07:42:08.833Z,64.39
2023-05-22T07:43:08.808Z,61.47
2023-05-22T07:44:08.826Z,62.13
2023-05-22T07:45:08.770Z,61.38
2023-05-22T07:46:08.856Z,60.50
2023-05-22T07:47:08.764Z,62.69
2023-05-22T07:48:08.789Z,61.88
2023-05-22T07:49:08.754Z,63.18
2023-05-22T07:50:08.748Z,64.37
2023-05-22T07:51:08.717Z,62.42
2023-05-22T07:52:08.731Z,64.34
2023-05-22T07:53:08.731Z,64.48
2023-05-22T07:54:08.743Z,64.51
2023-05-22T07:55:08.753Z,65.37
2023-05-22T07:56:08.703Z,64.12
2023-05-22T07:57:08.693Z,62.10
2023-05-22T07:58:08.696Z,62.37
2023-05-22T07:59:08.702Z,62.10
2023-05-22T08:00:08.680Z,61.11
2023-05-22T08:01:09.593Z,60.88
2023-05-22T08:02:08.763Z,60.78
2023-05-22T08:03:08.848Z,60.46
2023-05-22T08:04:08.997Z,58.67
2023-05-22T08:05:08.703Z,59.74
2023-05-22T08:06:08.814Z,60.53
2023-05-22T08:07:08.634Z,59.09
2023-05-22T08:08:08.616Z,62.37
2023-05-22T08:09:08.612Z,61.45
2023-05-22T08:10:08.643Z,61.01
2023-05-22T08:11:08.815Z,60.31
2023-05-22T08:12:08.616Z,62.30
2023-05-22T08:13:08.579Z,60.22
2023-05-22T08:14:08.576Z,60.82
2023-05-22T08:15:08.572Z,62.60
2023-05-22T08:16:08.567Z,59.00
2023-05-22T08:17:08.581Z,59.83
2023-05-22T08:18:08.652Z,59.61
2023-05-22T08:19:08.646Z,58.98
2023-05-22T08:20:08.677Z,56.48
2023-05-22T08:21:08.541Z,57.50
2023-05-22T08:22:08.649Z,58.03
2023-05-22T08:23:08.554Z,56.85
2023-05-22T08:24:08.524Z,56.95
2023-05-22T08:25:08.513Z,55.29
2023-05-22T08:26:08.519Z,56.06
2023-05-22T08:27:08.487Z,57.90
2023-05-22T08:28:08.491Z,59.55
2023-05-22T08:29:08.467Z,60.52
2023-05-22T08:30:08.504Z,59.69
2023-05-22T08:31:08.504Z,59.72
2023-05-22T08:32:08.524Z,60.31
2023-05-22T08:33:08.495Z,60.05
2023-05-22T08:34:08.486Z,60.05
2023-05-22T08:35:08.424Z,59.79
2023-05-22T08:36:08.464Z,59.63
2023-05-22T08:37:08.420Z,58.44
2023-05-22T08:38:08.482Z,56.80
2023-05-22T08:39:08.421Z,55.83
2023-05-22T08:40:08.409Z,56.85
2023-05-22T08:41:08.389Z,56.69
2023-05-22T08:42:08.401Z,54.10
2023-05-22T08:43:08.373Z,54.32
2023-05-22T08:44:08.410Z,56.30
2023-05-22T08:45:08.388Z,54.17
2023-05-22T08:46:08.415Z,53.62
2023-05-22T08:47:08.353Z,53.37
2023-05-22T08:48:08.377Z,51.59
2023-05-22T08:49:08.335Z,52.44
2023-05-22T08:50:08.336Z,55.32
2023-05-22T08:51:08.340Z,58.27
2023-05-22T08:52:08.344Z,58.54
2023-05-22T08:53:08.339Z,56.08
2023-05-22T08:54:08.399Z,54.81
2023-05-22T08:55:08.284Z,56.79
2023-05-22T08:56:08.303Z,55.04
2023-05-22T08:57:08.278Z,56.85
2023-05-22T08:58:08.337Z,55.36
2023-05-22T08:59:08.287Z,55.83
2023-05-22T09:00:08.294Z,54.88
2023-05-22T09:01:08.300Z,54.29
2023-05-22T09:02:08.255Z,55.94
2023-05-22T09:03:08.310Z,53.85
2023-05-22T09:04:08.264Z,53.59
2023-05-22T09:05:08.239Z,52.95
2023-05-22T09:06:08.255Z,54.91
2023-05-22T09:07:08.214Z,57.29
2023-05-22T09:08:19.120Z,54.54
2023-05-22T09:09:09.248Z,57.59
2023-05-22T09:10:08.265Z,57.27
2023-05-22T09:11:08.212Z,57.76
2023-05-22T09:12:08.214Z,59.49
2023-05-22T09:13:08.192Z,56.79
2023-05-22T09:14:08.200Z,55.08
2023-05-22T09:15:08.166Z,54.39
2023-05-22T09:16:08.183Z,55.28
2023-05-22T09:17:08.237Z,55.35
2023-05-22T09:18:08.241Z,56.21
2023-05-22T09:19:08.177Z,55.15
2023-05-22T09:20:08.165Z,53.94
2023-05-22T09:21:21.437Z,54.04
2023-05-22T09:22:09.118Z,53.92
2023-05-22T09:23:08.097Z,52.66
2023-05-22T09:24:08.133Z,53.42
2023-05-22T09:25:08.103Z,51.45
2023-05-22T09:26:08.151Z,50.90
2023-05-22T09:27:08.123Z,51.69
2023-05-22T09:28:08.114Z,51.75
2023-05-22T09:29:08.125Z,51.35
2023-05-22T09:30:08.078Z,53.35
2023-05-22T09:31:08.123Z,50.12
2023-05-22T09:32:08.050Z,51.69
2023-05-22T09:33:08.068Z,50.26
2023-05-22T09:34:08.075Z,51.23
2023-05-22T09:35:08.022Z,47.91
2023-05-22T09:36:08.047Z,49.30
2023-05-22T09:37:08.040Z,48.53
2023-05-22T09:38:08.321Z,48.31
2023-05-22T09:39:07.999Z,48.78
2023-05-22T09:40:08.020Z,52.28
2023-05-22T09:41:08.029Z,52.21
2023-05-22T09:42:08.007Z,50.36
2023-05-22T09:43:07.968Z,50.71
2023-05-22T09:44:07.996Z,48.22
2023-05-22T09:45:07.949Z,47.55
2023-05-22T09:46:08.013Z,48.44
2023-05-22T09:47:07.992Z,49.87
2023-05-22T09:48:07.974Z,52.24
2023-05-22T09:49:07.966Z,51.84
2023-05-22T09:50:07.951Z,51.20
2023-05-22T09:51:07.945Z,48.98
2023-05-22T09:52:07.945Z,50.54
2023-05-22T09:53:07.970Z,52.09
2023-05-22T09:54:07.954Z,46.34
2023-05-22T09:55:07.957Z,48.56
2023-05-22T09:56:07.912Z,48.27
2023-05-22T09:57:07.880Z,46.37
2023-05-22T09:58:07.876Z,46.37
2023-05-22T09:59:07.893Z,48.11
2023-05-22T10:00:07.890Z,47.81
2023-05-22T10:01:07.888Z,48.48
2023-05-22T10:02:07.938Z,50.46
2023-05-22T10:03:07.893Z,52.07
2023-05-22T10:04:07.904Z,52.66
2023-05-22T10:05:07.820Z,51.89
2023-05-22T10:06:07.837Z,53.58
2023-05-22T10:07:07.791Z,52.46
2023-05-22T10:08:07.802Z,51.25
2023-05-22T10:09:07.791Z,49.32
2023-05-22T10:10:07.814Z,50.83
2023-05-22T10:11:07.779Z,50.81
2023-05-22T10:12:07.815Z,50.76
2023-05-22T10:13:07.767Z,51.03
2023-05-22T10:14:07.925Z,50.78
2023-05-22T10:15:07.749Z,51.07
2023-05-22T10:16:07.822Z,51.07
2023-05-22T10:17:07.750Z,52.17
2023-05-22T10:18:07.835Z,52.46
2023-05-22T10:19:07.825Z,52.51
2023-05-22T10:20:07.748Z,53.08
2023-05-22T10:21:07.708Z,51.89
2023-05-22T10:22:07.719Z,50.95
2023-05-22T10:23:07.690Z,52.14
2023-05-22T10:24:07.698Z,48.77
2023-05-22T10:25:10.437Z,50.63
2023-05-22T10:26:07.687Z,50.81
2023-05-22T10:27:07.654Z,50.38
2023-05-22T10:28:07.693Z,50.95
2023-05-22T10:29:07.670Z,48.95
2023-05-22T10:30:07.747Z,48.55
2023-05-22T10:31:07.659Z,49.69
2023-05-22T10:32:07.670Z,50.54
2023-05-22T10:33:07.772Z,48.41
2023-05-22T10:34:07.787Z,46.29
2023-05-22T10:35:07.608Z,47.10
2023-05-22T10:36:07.656Z,47.28
2023-05-22T10:37:17.098Z,47.85
2023-05-22T10:38:08.620Z,46.22
2023-05-22T10:39:07.609Z,44.18
2023-05-22T10:40:07.584Z,44.64
2023-05-22T10:41:07.565Z,47.30
2023-05-22T10:42:07.608Z,46.73
2023-05-22T10:43:07.569Z,46.73
2023-05-22T10:44:07.575Z,47.81
2023-05-22T10:45:07.539Z,47.67
2023-05-22T10:46:07.770Z,47.16
2023-05-22T10:47:07.548Z,46.59
2023-05-22T10:48:07.642Z,45.19
2023-05-22T10:49:07.533Z,46.06
2023-05-22T10:50:07.518Z,47.14
2023-05-22T10:51:07.501Z,47.19
2023-05-22T10:52:07.512Z,47.28
2023-05-22T10:53:07.478Z,47.75
2023-05-22T10:54:07.503Z,47.44
2023-05-22T10:55:07.497Z,46.87
2023-05-22T10:56:07.517Z,45.63
2023-05-22T10:57:07.458Z,47.31
2023-05-22T10:58:07.472Z,46.22
2023-05-22T10:59:07.463Z,47.63
2023-05-22T11:00:07.494Z,46.76
2023-05-22T11:01:07.458Z,47.97
2023-05-22T11:02:09.021Z,50.24
2023-05-22T11:03:17.286Z,50.93
2023-05-22T11:04:08.439Z,52.63
2023-05-22T11:05:07.460Z,51.18
2023-05-22T11:06:07.432Z,53.67
2023-05-22T11:07:07.400Z,53.38
2023-05-22T11:08:07.432Z,54.17
2023-05-22T11:09:07.387Z,50.34
2023-05-22T11:10:07.395Z,53.28
2023-05-22T11:11:07.369Z,52.78
2023-05-22T11:12:07.385Z,51.89
2023-05-22T11:13:07.365Z,52.14
2023-05-22T11:14:07.395Z,51.89
2023-05-22T11:15:07.334Z,51.28
2023-05-22T11:16:07.346Z,52.14
2023-05-22T11:17:07.375Z,53.35
2023-05-22T11:18:07.483Z,53.03
2023-05-22T11:19:22.041Z,52.31
2023-05-22T11:20:08.466Z,49.79
2023-05-22T11:21:07.332Z,50.63
2023-05-22T11:22:07.310Z,48.46
2023-05-22T11:23:07.340Z,48.19
2023-05-22T11:24:07.298Z,47.68
2023-05-22T11:25:07.295Z,47.01
2023-05-22T11:26:07.288Z,47.67
2023-05-22T11:27:07.249Z,52.61
2023-05-22T11:28:07.323Z,50.63
2023-05-22T11:29:07.269Z,51.67
2023-05-22T11:30:07.271Z,51.67
2023-05-22T11:31:07.268Z,50.83
2023-05-22T11:32:07.259Z,48.34
2023-05-22T11:33:07.292Z,49.60
2023-05-22T11:34:07.338Z,48.57
2023-05-22T11:35:07.197Z,50.85
2023-05-22T11:36:07.229Z,55.27
2023-05-22T11:37:07.189Z,51.62
2023-05-22T11:38:07.382Z,51.52
2023-05-22T11:39:07.177Z,51.07
2023-05-22T11:40:07.261Z,49.90
2023-05-22T11:41:07.240Z,50.68
2023-05-22T11:42:07.192Z,49.82
2023-05-22T11:43:07.177Z,53.08
2023-05-22T11:44:07.171Z,49.74
2023-05-22T11:45:07.158Z,48.31
2023-05-22T11:46:07.230Z,48.14
2023-05-22T11:47:07.148Z,48.31
2023-05-22T11:48:07.206Z,53.10
2023-05-22T11:49:07.114Z,50.21
2023-05-22T11:50:07.214Z,45.89
2023-05-22T11:51:07.125Z,46.74
2023-05-22T11:52:07.132Z,47.01
2023-05-22T11:53:07.097Z,47.88
2023-05-22T11:54:07.092Z,46.57
2023-05-22T11:55:07.070Z,46.56
2023-05-22T11:56:07.089Z,46.56
2023-05-22T11:57:07.090Z,48.09
2023-05-22T11:58:07.110Z,46.91
2023-05-22T11:59:07.042Z,48.56
2023-05-22T12:00:07.105Z,49.33
2023-05-22T12:01:07.044Z,48.39
2023-05-22T12:02:07.032Z,47.80
2023-05-22T12:03:07.153Z,46.03
2023-05-22T12:04:07.122Z,45.21
2023-05-22T12:05:07.013Z,43.60
2023-05-22T12:06:07.136Z,44.40
2023-05-22T12:07:07.017Z,41.77
2023-05-22T12:08:07.000Z,46.00
2023-05-22T12:09:07.041Z,47.09
2023-05-22T12:10:06.982Z,48.27
2023-05-22T12:11:06.988Z,47.97
2023-05-22T12:12:06.966Z,48.44
2023-05-22T12:13:06.962Z,50.12
2023-05-22T12:14:06.973Z,46.57
2023-05-22T12:15:06.988Z,44.69
2023-05-22T12:16:07.020Z,44.29
2023-05-22T12:17:06.922Z,45.56
2023-05-22T12:18:07.003Z,44.96
2023-05-22T12:19:06.947Z,46.03
2023-05-22T12:20:06.950Z,45.88
2023-05-22T12:21:06.927Z,46.45
2023-05-22T12:22:06.910Z,42.96
2023-05-22T12:23:06.907Z,44.01
2023-05-22T12:24:06.885Z,45.97
2023-05-22T12:25:06.886Z,43.97
2023-05-22T12:26:06.881Z,46.79
2023-05-22T12:27:06.900Z,49.55
2023-05-22T12:28:06.896Z,46.30
2023-05-22T12:29:06.829Z,45.06
2023-05-22T12:30:06.906Z,47.35
2023-05-22T12:31:06.853Z,46.00
2023-05-22T12:32:06.904Z,48.51
2023-05-22T12:33:06.901Z,47.91
2023-05-22T12:34:06.826Z,46.16
2023-05-22T12:35:06.812Z,47.00
2023-05-22T12:36:06.822Z,44.98
2023-05-22T12:37:06.802Z,47.11
2023-05-22T12:38:06.906Z,46.03
2023-05-22T12:39:06.784Z,46.66
2023-05-22T12:40:06.786Z,46.69
2023-05-22T12:41:06.779Z,50.04
2023-05-22T12:42:06.827Z,48.24
2023-05-22T12:43:06.787Z,47.65
2023-05-22T12:44:06.794Z,47.53
2023-05-22T12:45:06.739Z,47.90
2023-05-22T12:46:06.819Z,46.32
2023-05-22T12:47:06.740Z,45.16
2023-05-22T12:48:06.883Z,46.42
2023-05-22T12:49:06.732Z,46.32
2023-05-22T12:50:06.736Z,47.72
2023-05-22T12:51:13.726Z,45.75
2023-05-22T12:52:06.738Z,48.00